Time;durP1;ratioP1;P1;durP2;ratioP2;P2;SDS_P1;SDS_P2;PMS_P1;PMS_P2;Temp;Humidity;BMP_temperature;BMP_pressure;BME280_temperature;BME280_humidity;BME280_pressure;Samples;Min_cycle;Max_cycle;Signal;HPM_P1;HPM_P2
2024/01/11 00:00:40;;;;;;;57.77;25.73;;;;;;;;;;5087681;28;20593;-63
2024/01/11 00:03:10;;;;;;;53.87;26.00;;;;;;;;;;5084005;28;20231;-63
2024/01/11 00:05:38;;;;;;;49.67;24.53;;;;;;;;;;5067960;28;20257;-63
2024/01/11 00:08:06;;;;;;;48.13;24.27;;;;;;;;;;5088586;28;20842;-64
2024/01/11 00:10:34;;;;;;;53.43;25.93;;;;;;;;;;5090532;28;20227;-63
2024/01/11 00:13:01;;;;;;;59.53;25.33;;;;;;;;;;5090164;28;20295;-63
2024/01/11 00:15:29;;;;;;;48.93;23.47;;;;;;;;;;5091523;28;20668;-65
2024/01/11 00:17:56;;;;;;;48.10;24.17;;;;;;;;;;5087366;28;20212;-64
2024/01/11 00:20:24;;;;;;;49.87;24.93;;;;;;;;;;5089852;28;20243;-63
2024/01/11 00:22:51;;;;;;;50.50;25.07;;;;;;;;;;5089316;28;20338;-62
2024/01/11 00:25:19;;;;;;;53.33;24.37;;;;;;;;;;5089796;28;20207;-63
2024/01/11 00:27:46;;;;;;;48.97;24.57;;;;;;;;;;5090368;28;20638;-62
2024/01/11 00:30:13;;;;;;;49.27;22.83;;;;;;;;;;5085380;28;20231;-63
2024/01/11 00:32:41;;;;;;;45.23;22.93;;;;;;;;;;5090685;28;20215;-62
2024/01/11 00:35:08;;;;;;;50.63;23.97;;;;;;;;;;5085107;28;20600;-63
2024/01/11 00:37:35;;;;;;;45.77;23.93;;;;;;;;;;5082581;28;20204;-64
2024/01/11 00:40:04;;;;;;;49.77;22.80;;;;;;;;;;5087887;28;20219;-65
2024/01/11 00:42:32;;;;;;;54.13;27.13;;;;;;;;;;5075021;28;20627;-64
2024/01/11 00:44:59;;;;;;;45.83;23.90;;;;;;;;;;5087681;28;20214;-63
2024/01/11 00:47:27;;;;;;;53.57;24.33;;;;;;;;;;5088730;28;20203;-64
2024/01/11 00:49:54;;;;;;;50.60;24.67;;;;;;;;;;5070561;28;20605;-61
2024/01/11 00:52:21;;;;;;;53.97;25.83;;;;;;;;;;5074110;28;20215;-63
2024/01/11 00:54:49;;;;;;;48.27;25.03;;;;;;;;;;5088041;28;20215;-64
2024/01/11 00:57:16;;;;;;;44.67;23.23;;;;;;;;;;5090582;28;20206;-63
2024/01/11 00:59:46;;;;;;;48.13;24.53;;;;;;;;;;5079142;28;20207;-64
2024/01/11 01:02:14;;;;;;;53.23;25.17;;;;;;;;;;5088271;28;20597;-64
2024/01/11 01:04:42;;;;;;;45.57;23.73;;;;;;;;;;5068898;28;20211;-62
2024/01/11 01:07:09;;;;;;;49.43;23.43;;;;;;;;;;5087938;28;20735;-63
2024/01/11 01:09:37;;;;;;;51.83;24.83;;;;;;;;;;5091591;28;20203;-63
2024/01/11 01:12:04;;;;;;;51.50;23.57;;;;;;;;;;5090770;28;20238;-64
2024/01/11 01:14:31;;;;;;;46.40;22.87;;;;;;;;;;5092795;28;20202;-64
2024/01/11 01:16:59;;;;;;;47.80;22.77;;;;;;;;;;5088130;28;20206;-63
2024/01/11 01:19:26;;;;;;;45.33;22.97;;;;;;;;;;5071606;28;20200;-64
2024/01/11 01:21:54;;;;;;;45.47;22.60;;;;;;;;;;5085092;28;20812;-62
2024/01/11 01:24:21;;;;;;;46.53;21.73;;;;;;;;;;5088364;28;20204;-63
2024/01/11 01:26:48;;;;;;;49.57;23.57;;;;;;;;;;5065403;28;20665;-65
2024/01/11 01:29:16;;;;;;;46.87;22.33;;;;;;;;;;5090434;28;20269;-63
2024/01/11 01:31:43;;;;;;;47.63;22.40;;;;;;;;;;5086655;28;20226;-65
2024/01/11 01:34:10;;;;;;;45.37;21.80;;;;;;;;;;5064662;28;20289;-64
2024/01/11 01:36:38;;;;;;;47.10;22.53;;;;;;;;;;5066893;28;20208;-64
2024/01/11 01:39:07;;;;;;;49.33;21.80;;;;;;;;;;5073217;28;20195;-62
2024/01/11 01:41:34;;;;;;;49.07;23.30;;;;;;;;;;5068148;28;20227;-62
2024/01/11 01:44:02;;;;;;;48.10;22.33;;;;;;;;;;5061613;28;20215;-62
2024/01/11 01:46:29;;;;;;;48.70;23.63;;;;;;;;;;5072422;28;20218;-63
2024/01/11 01:48:57;;;;;;;45.37;21.77;;;;;;;;;;5065727;28;20206;-62
2024/01/11 01:51:27;;;;;;;44.20;21.80;;;;;;;;;;5057696;28;20266;-63
2024/01/11 01:53:54;;;;;;;42.63;20.70;;;;;;;;;;5074331;28;20212;-63
2024/01/11 01:56:22;;;;;;;40.50;20.63;;;;;;;;;;5067395;28;20624;-63
2024/01/11 01:58:51;;;;;;;46.67;21.40;;;;;;;;;;5064801;28;20222;-63
2024/01/11 02:01:19;;;;;;;44.27;21.03;;;;;;;;;;5071953;28;20222;-64
2024/01/11 02:03:51;;;;;;;39.57;20.00;;;;;;;;;;5068648;28;20207;-62
2024/01/11 02:06:19;;;;;;;41.03;20.37;;;;;;;;;;5067604;28;20200;-63
2024/01/11 02:08:47;;;;;;;41.87;21.20;;;;;;;;;;5065755;28;20211;-63
2024/01/11 02:11:14;;;;;;;46.90;23.53;;;;;;;;;;5071183;28;20717;-64
2024/01/11 02:13:42;;;;;;;54.00;23.60;;;;;;;;;;5068164;28;20214;-63
2024/01/11 02:16:09;;;;;;;49.80;23.23;;;;;;;;;;5062870;28;21631;-62
2024/01/11 02:18:37;;;;;;;48.67;22.67;;;;;;;;;;5068528;28;20215;-63
2024/01/11 02:21:07;;;;;;;47.57;22.20;;;;;;;;;;5064800;28;20237;-63
2024/01/11 02:23:35;;;;;;;45.93;22.03;;;;;;;;;;5069184;28;20264;-62
2024/01/11 02:26:02;;;;;;;46.30;21.50;;;;;;;;;;5068350;28;20198;-63
2024/01/11 02:28:29;;;;;;;46.17;22.07;;;;;;;;;;5073532;28;20211;-64
2024/01/11 02:30:57;;;;;;;48.10;22.33;;;;;;;;;;5053522;28;20239;-64
2024/01/11 02:33:24;;;;;;;45.40;21.03;;;;;;;;;;5055029;28;20260;-65
2024/01/11 02:35:52;;;;;;;44.57;20.63;;;;;;;;;;5062485;28;20689;-62
2024/01/11 02:38:19;;;;;;;41.57;20.43;;;;;;;;;;5070064;28;20582;-62
2024/01/11 02:40:47;;;;;;;39.17;19.30;;;;;;;;;;5066087;28;20968;-64
2024/01/11 02:43:14;;;;;;;40.53;20.30;;;;;;;;;;5068708;28;20220;-63
2024/01/11 02:45:42;;;;;;;45.43;21.17;;;;;;;;;;5068717;28;20658;-63
2024/01/11 02:48:09;;;;;;;47.03;21.40;;;;;;;;;;5068616;28;20214;-64
2024/01/11 02:50:36;;;;;;;44.83;20.23;;;;;;;;;;5086911;28;20322;-63
2024/01/11 02:53:04;;;;;;;40.97;19.90;;;;;;;;;;5081931;28;20215;-64
2024/01/11 02:55:31;;;;;;;44.23;20.40;;;;;;;;;;5087399;28;20807;-64
2024/01/11 02:57:59;;;;;;;42.43;20.93;;;;;;;;;;5070231;28;20680;-63
2024/01/11 03:00:26;;;;;;;46.90;21.83;;;;;;;;;;5085105;28;20338;-62
2024/01/11 03:02:53;;;;;;;39.80;20.03;;;;;;;;;;5084946;28;20213;-63
2024/01/11 03:05:20;;;;;;;42.20;19.40;;;;;;;;;;5085525;28;20238;-62
2024/01/11 03:07:48;;;;;;;42.77;19.73;;;;;;;;;;5086631;28;20639;-63
2024/01/11 03:10:16;;;;;;;40.67;19.70;;;;;;;;;;5086174;28;20207;-63
2024/01/11 03:12:44;;;;;;;42.63;19.77;;;;;;;;;;5088451;28;20203;-63
2024/01/11 03:15:11;;;;;;;38.83;20.20;;;;;;;;;;5084374;28;20237;-64
2024/01/11 03:17:38;;;;;;;38.03;19.87;;;;;;;;;;5072627;28;20206;-63
2024/01/11 03:20:06;;;;;;;44.47;20.63;;;;;;;;;;5078284;28;20284;-64
2024/01/11 03:22:34;;;;;;;44.93;20.23;;;;;;;;;;5088266;28;20391;-65
2024/01/11 03:25:02;;;;;;;34.97;19.53;;;;;;;;;;5091846;28;20222;-63
2024/01/11 03:27:29;;;;;;;40.23;20.00;;;;;;;;;;5073255;28;20200;-64
2024/01/11 03:29:57;;;;;;;43.77;20.67;;;;;;;;;;5090563;28;20664;-65
2024/01/11 03:32:24;;;;;;;38.97;19.10;;;;;;;;;;5092266;28;20227;-63
2024/01/11 03:34:51;;;;;;;42.03;19.27;;;;;;;;;;5093190;28;20193;-63
2024/01/11 03:37:19;;;;;;;45.90;19.73;;;;;;;;;;5092108;28;20194;-62
2024/01/11 03:39:46;;;;;;;41.37;19.93;;;;;;;;;;5089327;28;20223;-63
2024/01/11 03:42:13;;;;;;;39.53;20.83;;;;;;;;;;5091289;28;20691;-63
2024/01/11 03:44:41;;;;;;;43.83;20.43;;;;;;;;;;5091311;28;20699;-62
2024/01/11 03:47:08;;;;;;;45.53;21.03;;;;;;;;;;5091900;28;20209;-62
2024/01/11 03:49:35;;;;;;;47.43;20.90;;;;;;;;;;5087731;28;20199;-63
2024/01/11 03:52:03;;;;;;;40.37;19.90;;;;;;;;;;5088603;28;20225;-64
2024/01/11 03:54:30;;;;;;;42.67;21.27;;;;;;;;;;5089127;28;20623;-64
2024/01/11 03:56:57;;;;;;;44.13;20.63;;;;;;;;;;5087789;28;20207;-63
2024/01/11 03:59:25;;;;;;;45.10;20.53;;;;;;;;;;5087794;28;20207;-64
2024/01/11 04:01:52;;;;;;;36.40;18.77;;;;;;;;;;5091127;28;20241;-65
2024/01/11 04:04:20;;;;;;;42.43;20.93;;;;;;;;;;5089083;28;20206;-63
2024/01/11 04:06:50;;;;;;;43.87;20.73;;;;;;;;;;5083283;28;20201;-63
2024/01/11 04:09:17;;;;;;;52.87;22.37;;;;;;;;;;5070342;28;20212;-64
2024/01/11 04:11:44;;;;;;;42.63;22.13;;;;;;;;;;5086571;28;20249;-65
2024/01/11 04:14:12;;;;;;;45.57;21.67;;;;;;;;;;5082062;28;20261;-65
2024/01/11 04:16:42;;;;;;;45.97;21.00;;;;;;;;;;5080618;28;20213;-64
2024/01/11 04:19:10;;;;;;;45.90;23.40;;;;;;;;;;5082509;28;20234;-62
2024/01/11 04:21:40;;;;;;;48.87;22.93;;;;;;;;;;5088528;28;20219;-63
2024/01/11 04:24:08;;;;;;;44.77;21.83;;;;;;;;;;5082541;28;20720;-64
2024/01/11 04:26:35;;;;;;;42.37;21.43;;;;;;;;;;5081614;28;20210;-63
2024/01/11 04:29:03;;;;;;;48.93;23.60;;;;;;;;;;5090813;28;20296;-62
2024/01/11 04:31:30;;;;;;;48.00;22.93;;;;;;;;;;5065130;28;20393;-65
2024/01/11 04:33:57;;;;;;;47.77;21.23;;;;;;;;;;5071064;28;22349;-62
2024/01/11 04:36:25;;;;;;;49.63;21.53;;;;;;;;;;5075827;28;20304;-65
2024/01/11 04:38:52;;;;;;;47.53;22.63;;;;;;;;;;5087172;28;20198;-64
2024/01/11 04:41:20;;;;;;;43.30;20.87;;;;;;;;;;5089190;28;20308;-62
2024/01/11 04:43:47;;;;;;;41.57;21.53;;;;;;;;;;5084977;28;20206;-63
2024/01/11 04:46:18;;;;;;;44.60;21.20;;;;;;;;;;5083063;28;20201;-62
2024/01/11 04:48:46;;;;;;;43.83;20.83;;;;;;;;;;5084264;28;20209;-62
2024/01/11 04:51:14;;;;;;;44.97;22.00;;;;;;;;;;5084808;28;20226;-62
2024/01/11 04:53:42;;;;;;;43.10;19.87;;;;;;;;;;5070559;28;20197;-65
2024/01/11 04:56:10;;;;;;;41.90;20.03;;;;;;;;;;5086823;28;20205;-63
2024/01/11 04:58:39;;;;;;;41.10;20.27;;;;;;;;;;5084912;28;20212;-64
2024/01/11 05:01:07;;;;;;;39.93;20.87;;;;;;;;;;5088125;28;20590;-62
2024/01/11 05:03:34;;;;;;;41.47;19.97;;;;;;;;;;5090086;28;20220;-63
2024/01/11 05:06:02;;;;;;;44.43;20.77;;;;;;;;;;5087720;28;20210;-63
2024/01/11 05:08:30;;;;;;;43.97;19.60;;;;;;;;;;5087621;28;20620;-63
2024/01/11 05:10:57;;;;;;;38.93;20.30;;;;;;;;;;5091040;28;20252;-63
2024/01/11 05:13:24;;;;;;;45.37;21.57;;;;;;;;;;5086442;28;22810;-63
2024/01/11 05:15:52;;;;;;;48.17;23.37;;;;;;;;;;5085684;28;20205;-63
2024/01/11 05:18:19;;;;;;;43.37;23.37;;;;;;;;;;5083945;28;20576;-62
2024/01/11 05:20:47;;;;;;;48.77;23.93;;;;;;;;;;5081073;28;20283;-62
2024/01/11 05:23:14;;;;;;;51.10;23.43;;;;;;;;;;5087300;28;20291;-65
2024/01/11 05:25:41;;;;;;;45.77;24.87;;;;;;;;;;5086483;28;20204;-62
2024/01/11 05:28:09;;;;;;;55.00;26.37;;;;;;;;;;5081731;28;20207;-63
2024/01/11 05:30:41;;;;;;;57.10;27.30;;;;;;;;;;5081275;28;20227;-61
2024/01/11 05:33:13;;;;;;;60.17;32.03;;;;;;;;;;5074990;28;20223;-64
2024/01/11 05:35:44;;;;;;;60.43;31.37;;;;;;;;;;5065533;28;20215;-63
2024/01/11 05:38:12;;;;;;;58.10;31.37;;;;;;;;;;5071907;28;20204;-63
2024/01/11 05:40:40;;;;;;;58.30;27.97;;;;;;;;;;5052989;28;20248;-64
2024/01/11 05:43:07;;;;;;;49.03;25.00;;;;;;;;;;5061066;28;20207;-63
2024/01/11 05:45:36;;;;;;;48.77;23.40;;;;;;;;;;5065879;28;20206;-63
2024/01/11 05:48:14;;;;;;;45.17;20.40;;;;;;;;;;5050475;28;20269;-64
2024/01/11 05:50:41;;;;;;;41.17;19.13;;;;;;;;;;5062805;28;20313;-63
2024/01/11 05:53:09;;;;;;;43.97;20.80;;;;;;;;;;5066799;28;20282;-64
2024/01/11 05:55:37;;;;;;;39.37;19.03;;;;;;;;;;5068992;28;20645;-64
2024/01/11 05:58:04;;;;;;;45.73;21.17;;;;;;;;;;5076787;28;20206;-63
2024/01/11 06:00:32;;;;;;;38.33;20.43;;;;;;;;;;5082572;28;20238;-64
2024/01/11 06:02:59;;;;;;;38.00;20.63;;;;;;;;;;5077150;28;20206;-65
2024/01/11 06:05:26;;;;;;;42.20;20.13;;;;;;;;;;5083795;28;20767;-65
2024/01/11 06:07:54;;;;;;;32.33;18.10;;;;;;;;;;5081668;28;20206;-64
2024/01/11 06:10:21;;;;;;;39.60;20.17;;;;;;;;;;5079994;28;20659;-65
2024/01/11 06:12:49;;;;;;;41.67;18.97;;;;;;;;;;5079499;28;20271;-63
2024/01/11 06:15:16;;;;;;;41.27;20.30;;;;;;;;;;5084505;28;20259;-62
2024/01/11 06:17:44;;;;;;;35.97;19.60;;;;;;;;;;5082322;28;20201;-65
2024/01/11 06:20:12;;;;;;;42.83;20.77;;;;;;;;;;5090191;28;20197;-64
2024/01/11 06:22:39;;;;;;;39.33;19.17;;;;;;;;;;5090180;28;20577;-64
2024/01/11 06:25:10;;;;;;;43.37;20.13;;;;;;;;;;5090084;28;20210;-62
2024/01/11 06:27:37;;;;;;;44.77;20.53;;;;;;;;;;5091383;28;20202;-61
2024/01/11 06:30:06;;;;;;;44.37;20.50;;;;;;;;;;5092783;28;20252;-64
2024/01/11 06:32:34;;;;;;;40.53;19.87;;;;;;;;;;5091482;28;20233;-63
2024/01/11 06:35:02;;;;;;;39.93;19.43;;;;;;;;;;5091792;28;20819;-64
2024/01/11 06:37:30;;;;;;;40.90;19.37;;;;;;;;;;5075945;28;20232;-63
2024/01/11 06:39:58;;;;;;;36.33;18.97;;;;;;;;;;5088667;28;20670;-64
2024/01/11 06:42:25;;;;;;;39.23;18.93;;;;;;;;;;5090592;28;20222;-62
2024/01/11 06:44:52;;;;;;;37.43;18.63;;;;;;;;;;5090706;28;20719;-63
2024/01/11 06:47:19;;;;;;;37.03;19.27;;;;;;;;;;5091012;28;20202;-62
2024/01/11 06:49:47;;;;;;;36.87;19.23;;;;;;;;;;5093081;28;20204;-63
2024/01/11 06:52:14;;;;;;;36.70;19.40;;;;;;;;;;5090148;28;20320;-63
2024/01/11 06:54:42;;;;;;;40.83;20.10;;;;;;;;;;5093882;28;20257;-62
2024/01/11 06:57:09;;;;;;;31.70;17.80;;;;;;;;;;5072711;28;20193;-62
2024/01/11 06:59:37;;;;;;;38.93;19.63;;;;;;;;;;5069613;28;20536;-65
2024/01/11 07:02:04;;;;;;;40.77;21.60;;;;;;;;;;5090040;28;20258;-65
2024/01/11 07:04:32;;;;;;;44.77;23.93;;;;;;;;;;5090583;28;20206;-64
2024/01/11 07:07:01;;;;;;;41.10;22.93;;;;;;;;;;5089495;28;20667;-62
2024/01/11 07:09:28;;;;;;;45.23;22.47;;;;;;;;;;5071771;28;20578;-63
2024/01/11 07:11:56;;;;;;;44.10;24.10;;;;;;;;;;5091700;28;20288;-64
2024/01/11 07:14:23;;;;;;;55.45;31.50;;;;;;;;;;5085438;28;20436;-65
2024/01/11 07:16:50;;;;;;;45.90;24.40;;;;;;;;;;5069387;28;20223;-63
2024/01/11 07:19:18;;;;;;;41.80;22.57;;;;;;;;;;5088439;28;20207;-65
2024/01/11 07:21:45;;;;;;;43.13;22.43;;;;;;;;;;5067825;28;20720;-64
2024/01/11 07:24:13;;;;;;;40.47;21.40;;;;;;;;;;5069283;28;20207;-64
2024/01/11 07:26:40;;;;;;;35.80;19.67;;;;;;;;;;5088096;28;20207;-62
2024/01/11 07:29:08;;;;;;;33.70;18.07;;;;;;;;;;5086853;28;20199;-65
2024/01/11 07:31:35;;;;;;;34.07;17.83;;;;;;;;;;5090867;28;20324;-63
2024/01/11 07:34:02;;;;;;;32.33;17.57;;;;;;;;;;5087276;28;20210;-63
2024/01/11 07:36:30;;;;;;;37.73;16.73;;;;;;;;;;5089483;28;20285;-63
2024/01/11 07:38:57;;;;;;;32.43;17.83;;;;;;;;;;5088820;28;20209;-63
2024/01/11 07:41:24;;;;;;;33.97;17.23;;;;;;;;;;5086751;28;20225;-64
2024/01/11 07:43:52;;;;;;;30.83;16.73;;;;;;;;;;5089123;28;20249;-64
2024/01/11 07:46:21;;;;;;;29.50;16.83;;;;;;;;;;5086634;28;20222;-63
2024/01/11 07:49:05;;;;;;;34.50;17.00;;;;;;;;;;5086360;28;20286;-64
2024/01/11 07:51:34;;;;;;;32.43;17.73;;;;;;;;;;5086937;28;20217;-65
2024/01/11 07:54:02;;;;;;;31.53;18.03;;;;;;;;;;5087239;28;20202;-64
2024/01/11 07:56:30;;;;;;;34.80;19.47;;;;;;;;;;5087046;28;20281;-64
2024/01/11 07:58:57;;;;;;;33.60;18.87;;;;;;;;;;5090905;28;20254;-63
2024/01/11 08:01:25;;;;;;;32.63;18.00;;;;;;;;;;5068072;28;20222;-63
2024/01/11 08:03:52;;;;;;;39.57;20.73;;;;;;;;;;5070545;28;20227;-62
2024/01/11 08:06:20;;;;;;;35.17;20.37;;;;;;;;;;5088204;28;20203;-63
2024/01/11 08:08:51;;;;;;;37.93;21.17;;;;;;;;;;5072030;28;20373;-63
2024/01/11 08:11:20;;;;;;;37.77;20.50;;;;;;;;;;5069198;28;20228;-63
2024/01/11 08:13:47;;;;;;;40.40;19.70;;;;;;;;;;5089147;28;20201;-63
2024/01/11 08:16:18;;;;;;;44.27;20.40;;;;;;;;;;5083825;28;20285;-62
2024/01/11 08:18:46;;;;;;;33.43;19.10;;;;;;;;;;5087372;28;20726;-63
2024/01/11 08:21:14;;;;;;;36.57;19.90;;;;;;;;;;5087263;28;20250;-63
2024/01/11 08:23:48;;;;;;;36.03;18.53;;;;;;;;;;5069896;28;20607;-63
2024/01/11 08:26:21;;;;;;;35.07;18.70;;;;;;;;;;5085270;28;20206;-64
2024/01/11 08:28:50;;;;;;;31.50;16.73;;;;;;;;;;5068940;28;20235;-63
2024/01/11 08:31:17;;;;;;;35.57;18.40;;;;;;;;;;5088596;28;20230;-62
2024/01/11 08:33:45;;;;;;;37.40;18.50;;;;;;;;;;5090552;28;20223;-62
2024/01/11 08:36:12;;;;;;;36.17;19.03;;;;;;;;;;5070335;28;20260;-63
2024/01/11 08:38:41;;;;;;;32.17;17.67;;;;;;;;;;5083788;28;20199;-63
2024/01/11 08:41:09;;;;;;;34.00;17.90;;;;;;;;;;5084625;28;20234;-63
2024/01/11 08:43:39;;;;;;;33.80;18.57;;;;;;;;;;5089690;28;20244;-63
2024/01/11 08:46:08;;;;;;;34.27;18.60;;;;;;;;;;5088424;28;20218;-62
2024/01/11 08:48:36;;;;;;;30.47;18.20;;;;;;;;;;5089880;28;20216;-62
2024/01/11 08:51:06;;;;;;;32.47;18.93;;;;;;;;;;5070434;28;20603;-63
2024/01/11 08:53:33;;;;;;;35.40;19.33;;;;;;;;;;5086025;28;20216;-63
2024/01/11 08:56:01;;;;;;;37.00;20.17;;;;;;;;;;5071354;28;20242;-65
2024/01/11 08:58:28;;;;;;;38.50;20.30;;;;;;;;;;5086063;28;20228;-62
2024/01/11 09:00:55;;;;;;;34.80;19.47;;;;;;;;;;5082666;28;20699;-63
2024/01/11 09:03:24;;;;;;;34.10;19.67;;;;;;;;;;5087955;28;20594;-63
2024/01/11 09:05:52;;;;;;;36.70;20.40;;;;;;;;;;5089836;28;20268;-66
2024/01/11 09:08:19;;;;;;;46.70;23.03;;;;;;;;;;5086298;28;20205;-63
2024/01/11 09:10:47;;;;;;;56.67;25.47;;;;;;;;;;5082546;28;20260;-63
2024/01/11 09:13:18;;;;;;;49.43;25.60;;;;;;;;;;5089134;28;20229;-63
2024/01/11 09:15:45;;;;;;;42.73;24.23;;;;;;;;;;5080498;28;20487;-64
2024/01/11 09:18:12;;;;;;;51.23;25.83;;;;;;;;;;5087808;28;20196;-62
2024/01/11 09:20:40;;;;;;;48.53;24.50;;;;;;;;;;5089306;28;20221;-64
2024/01/11 09:23:08;;;;;;;50.13;25.47;;;;;;;;;;5066913;28;20208;-62
2024/01/11 09:25:36;;;;;;;46.77;26.70;;;;;;;;;;5084701;28;20214;-63
2024/01/11 09:28:04;;;;;;;49.53;26.13;;;;;;;;;;5086520;28;20254;-62
2024/01/11 09:30:31;;;;;;;49.00;26.33;;;;;;;;;;5084197;28;20717;-64
2024/01/11 09:32:58;;;;;;;47.33;25.67;;;;;;;;;;5087352;28;20232;-64
2024/01/11 09:35:26;;;;;;;47.47;27.00;;;;;;;;;;5089480;28;20200;-63
2024/01/11 09:37:54;;;;;;;45.07;26.57;;;;;;;;;;5087398;28;20553;-64
2024/01/11 09:40:22;;;;;;;47.77;25.00;;;;;;;;;;5090990;28;20197;-62
2024/01/11 09:42:49;;;;;;;50.73;27.67;;;;;;;;;;5088211;28;20278;-63
2024/01/11 09:45:17;;;;;;;52.07;28.60;;;;;;;;;;5084432;28;20213;-62
2024/01/11 09:47:45;;;;;;;50.53;25.97;;;;;;;;;;5086782;28;20204;-64
2024/01/11 09:50:17;;;;;;;49.83;28.17;;;;;;;;;;5087980;28;20495;-64
2024/01/11 09:52:48;;;;;;;46.50;27.40;;;;;;;;;;5086719;28;20689;-63
2024/01/11 09:55:16;;;;;;;49.97;26.97;;;;;;;;;;5086219;28;20201;-63
2024/01/11 09:57:46;;;;;;;49.27;28.37;;;;;;;;;;5087207;28;20201;-64
2024/01/11 10:00:14;;;;;;;54.43;28.80;;;;;;;;;;5083835;28;20202;-64
2024/01/11 10:02:41;;;;;;;58.33;31.90;;;;;;;;;;5089425;28;20207;-63
2024/01/11 10:05:11;;;;;;;47.67;26.93;;;;;;;;;;5087592;28;20209;-63
2024/01/11 10:07:41;;;;;;;41.57;24.70;;;;;;;;;;5091024;28;20209;-63
2024/01/11 10:10:09;;;;;;;36.57;23.00;;;;;;;;;;5086930;28;20208;-64
2024/01/11 10:12:36;;;;;;;31.47;20.47;;;;;;;;;;5088970;28;20220;-64
2024/01/11 10:15:13;;;;;;;31.67;21.00;;;;;;;;;;5086050;28;20215;-64
2024/01/11 10:17:43;;;;;;;34.70;21.87;;;;;;;;;;5087003;28;20201;-64
2024/01/11 10:20:13;;;;;;;34.20;21.40;;;;;;;;;;5088217;28;20201;-63
2024/01/11 10:22:42;;;;;;;36.20;21.73;;;;;;;;;;5088937;28;20209;-64
2024/01/11 10:25:13;;;;;;;31.07;19.73;;;;;;;;;;5089809;28;20205;-65
2024/01/11 10:27:44;;;;;;;32.40;21.13;;;;;;;;;;5087938;28;20209;-65
2024/01/11 10:30:26;;;;;;;29.27;20.13;;;;;;;;;;5084356;28;20201;-63
2024/01/11 10:32:53;;;;;;;30.67;20.27;;;;;;;;;;5087896;28;20217;-62
2024/01/11 10:35:22;;;;;;;31.47;21.00;;;;;;;;;;5087983;28;20205;-63
2024/01/11 10:37:54;;;;;;;29.97;20.83;;;;;;;;;;5087900;28;20663;-63
2024/01/11 10:40:25;;;;;;;27.43;18.90;;;;;;;;;;5084107;28;20201;-63
2024/01/11 10:43:01;;;;;;;25.23;18.13;;;;;;;;;;5079695;28;20204;-63
2024/01/11 10:45:28;;;;;;;25.53;18.20;;;;;;;;;;5078401;28;20205;-64
2024/01/11 10:48:01;;;;;;;27.27;19.33;;;;;;;;;;5080110;28;20494;-63
2024/01/11 10:50:31;;;;;;;26.50;18.60;;;;;;;;;;5080540;28;20724;-64
2024/01/11 10:53:05;;;;;;;27.30;18.03;;;;;;;;;;5085979;28;20311;-65
2024/01/11 10:55:34;;;;;;;25.00;17.57;;;;;;;;;;5084341;28;20677;-63
2024/01/11 10:58:02;;;;;;;27.83;18.20;;;;;;;;;;5083913;28;20224;-64
2024/01/11 11:00:30;;;;;;;29.93;19.63;;;;;;;;;;5084100;28;20460;-64
2024/01/11 11:03:00;;;;;;;28.30;18.23;;;;;;;;;;5069254;28;20205;-63
2024/01/11 11:05:31;;;;;;;28.40;19.27;;;;;;;;;;5083666;28;20250;-64
2024/01/11 11:08:01;;;;;;;29.27;18.57;;;;;;;;;;5086325;28;20212;-63
2024/01/11 11:10:30;;;;;;;27.77;18.87;;;;;;;;;;5088386;28;20232;-63
2024/01/11 11:12:59;;;;;;;29.07;19.47;;;;;;;;;;5073053;28;20233;-63
2024/01/11 11:15:30;;;;;;;31.57;19.80;;;;;;;;;;5088350;28;20224;-63
2024/01/11 11:17:57;;;;;;;29.10;19.00;;;;;;;;;;5085591;28;20546;-64
2024/01/11 11:20:26;;;;;;;29.83;19.17;;;;;;;;;;5070396;28;20638;-63
2024/01/11 11:23:17;;;;;;;31.17;19.10;;;;;;;;;;5069943;28;20201;-63
2024/01/11 11:25:48;;;;;;;29.93;17.67;;;;;;;;;;5086759;28;20197;-63
2024/01/11 11:28:17;;;;;;;29.57;18.13;;;;;;;;;;5068825;28;20216;-64
2024/01/11 11:30:45;;;;;;;32.10;17.73;;;;;;;;;;5068170;28;20225;-62
2024/01/11 11:33:23;;;;;;;30.20;17.43;;;;;;;;;;5092199;28;20227;-63
2024/01/11 11:35:55;;;;;;;30.27;17.87;;;;;;;;;;5069353;28;20201;-63
2024/01/11 11:38:23;;;;;;;29.93;17.87;;;;;;;;;;5066145;28;20210;-62
2024/01/11 11:40:52;;;;;;;30.10;18.80;;;;;;;;;;5084637;28;20224;-63
2024/01/11 11:43:21;;;;;;;31.50;18.53;;;;;;;;;;5082435;28;20300;-61
2024/01/11 11:45:49;;;;;;;28.37;17.63;;;;;;;;;;5082514;28;21145;-63
2024/01/11 11:48:32;;;;;;;28.80;18.17;;;;;;;;;;5085313;28;20205;-64
2024/01/11 11:51:04;;;;;;;32.83;18.63;;;;;;;;;;5081881;28;20301;-62
2024/01/11 11:53:34;;;;;;;32.30;19.20;;;;;;;;;;5085014;28;20216;-63
2024/01/11 11:56:01;;;;;;;31.87;18.90;;;;;;;;;;5083403;28;20209;-63
2024/01/11 11:58:29;;;;;;;30.80;19.53;;;;;;;;;;5066331;28;20250;-62
2024/01/11 12:01:01;;;;;;;27.93;17.70;;;;;;;;;;5068968;28;20220;-63
2024/01/11 12:03:32;;;;;;;27.90;18.17;;;;;;;;;;5072571;28;20584;-63
2024/01/11 12:06:00;;;;;;;27.30;17.37;;;;;;;;;;5066675;28;20658;-63
2024/01/11 12:08:28;;;;;;;26.83;17.30;;;;;;;;;;5085286;28;20228;-64
2024/01/11 12:10:57;;;;;;;31.90;18.13;;;;;;;;;;5083669;28;20231;-64
2024/01/11 12:13:25;;;;;;;28.90;18.23;;;;;;;;;;5086315;28;20573;-63
2024/01/11 12:15:52;;;;;;;29.53;17.27;;;;;;;;;;5087631;28;20215;-63
2024/01/11 12:18:19;;;;;;;26.93;17.43;;;;;;;;;;5091645;28;20242;-63
2024/01/11 12:20:47;;;;;;;26.57;17.33;;;;;;;;;;5065149;28;20249;-63
2024/01/11 12:23:15;;;;;;;25.80;16.43;;;;;;;;;;5084618;28;20364;-62
2024/01/11 12:25:43;;;;;;;28.00;17.93;;;;;;;;;;5081716;28;20269;-63
2024/01/11 12:28:12;;;;;;;29.87;18.20;;;;;;;;;;5087278;28;20200;-64
2024/01/11 12:30:40;;;;;;;29.60;18.07;;;;;;;;;;5082192;28;20235;-63
2024/01/11 12:33:07;;;;;;;31.57;19.33;;;;;;;;;;5087261;28;20630;-63
2024/01/11 12:35:36;;;;;;;26.93;17.30;;;;;;;;;;5071995;28;20760;-64
2024/01/11 12:38:09;;;;;;;28.03;16.63;;;;;;;;;;5083274;28;20298;-64
2024/01/11 12:40:37;;;;;;;24.83;16.83;;;;;;;;;;5083929;28;20605;-63
2024/01/11 12:43:05;;;;;;;25.17;16.40;;;;;;;;;;5068399;28;20662;-63
2024/01/11 12:45:33;;;;;;;30.23;18.90;;;;;;;;;;5064809;28;20201;-63
2024/01/11 12:48:00;;;;;;;24.13;16.33;;;;;;;;;;5086021;28;20218;-63
2024/01/11 12:50:33;;;;;;;24.17;16.67;;;;;;;;;;5089699;28;20267;-63
2024/01/11 12:53:12;;;;;;;24.07;15.73;;;;;;;;;;5067772;28;20959;-63
2024/01/11 12:55:40;;;;;;;22.23;14.83;;;;;;;;;;5087095;28;20201;-63
2024/01/11 12:58:21;;;;;;;22.90;15.33;;;;;;;;;;5071404;28;20197;-63
2024/01/11 13:00:49;;;;;;;22.70;14.83;;;;;;;;;;5084249;28;20217;-62
2024/01/11 13:03:19;;;;;;;22.93;15.87;;;;;;;;;;5087957;28;20212;-61
2024/01/11 13:05:49;;;;;;;23.23;15.73;;;;;;;;;;5081587;28;20243;-63
2024/01/11 13:08:16;;;;;;;23.27;14.93;;;;;;;;;;5087909;28;20208;-63
2024/01/11 13:10:47;;;;;;;23.13;14.20;;;;;;;;;;5081609;28;20221;-62
2024/01/11 13:13:15;;;;;;;23.60;15.83;;;;;;;;;;5087191;28;20232;-62
2024/01/11 13:15:43;;;;;;;25.63;15.87;;;;;;;;;;5086322;28;20213;-63
2024/01/11 13:18:14;;;;;;;24.60;15.63;;;;;;;;;;5084617;28;20238;-63
2024/01/11 13:20:41;;;;;;;26.33;17.17;;;;;;;;;;5079842;28;20247;-63
2024/01/11 13:23:13;;;;;;;21.10;14.37;;;;;;;;;;5084481;28;20210;-63
2024/01/11 13:25:41;;;;;;;21.67;14.50;;;;;;;;;;5066411;28;20206;-64
2024/01/11 13:28:11;;;;;;;20.30;14.20;;;;;;;;;;5065305;28;20601;-64
2024/01/11 13:30:39;;;;;;;19.50;12.93;;;;;;;;;;5084061;28;20599;-62
2024/01/11 13:33:10;;;;;;;19.90;13.30;;;;;;;;;;5087314;28;20683;-64
2024/01/11 13:35:40;;;;;;;18.93;13.30;;;;;;;;;;5083364;28;20212;-63
2024/01/11 13:38:08;;;;;;;22.17;13.70;;;;;;;;;;5084188;28;20215;-64
2024/01/11 13:40:35;;;;;;;19.63;13.70;;;;;;;;;;5090359;28;20633;-63
2024/01/11 13:43:03;;;;;;;19.33;13.63;;;;;;;;;;5050863;28;20192;-63
2024/01/11 13:45:30;;;;;;;19.80;13.47;;;;;;;;;;5088689;28;20204;-64
2024/01/11 13:47:58;;;;;;;19.77;13.47;;;;;;;;;;5080932;28;20213;-63
2024/01/11 13:50:25;;;;;;;18.07;12.00;;;;;;;;;;5080225;28;20224;-63
2024/01/11 13:52:53;;;;;;;21.77;13.30;;;;;;;;;;5086397;28;20193;-63
2024/01/11 13:55:21;;;;;;;18.17;12.80;;;;;;;;;;5069965;28;20192;-63
2024/01/11 13:57:50;;;;;;;20.97;13.73;;;;;;;;;;5088348;28;20203;-63
2024/01/11 14:00:18;;;;;;;19.50;13.07;;;;;;;;;;5088448;28;20372;-64
2024/01/11 14:02:47;;;;;;;19.47;12.80;;;;;;;;;;5084649;28;20220;-64
2024/01/11 14:05:17;;;;;;;18.47;12.33;;;;;;;;;;5070841;28;20212;-62
2024/01/11 14:07:46;;;;;;;17.40;12.13;;;;;;;;;;5084755;28;20209;-62
2024/01/11 14:10:14;;;;;;;18.73;12.57;;;;;;;;;;5081859;28;20547;-63
2024/01/11 14:12:42;;;;;;;20.87;13.13;;;;;;;;;;5082209;28;20197;-63
2024/01/11 14:15:13;;;;;;;19.33;12.97;;;;;;;;;;5086258;28;20225;-63
2024/01/11 14:17:41;;;;;;;20.47;13.37;;;;;;;;;;5089631;28;20193;-62
2024/01/11 14:20:13;;;;;;;17.30;11.90;;;;;;;;;;5081075;28;20732;-63
2024/01/11 14:22:47;;;;;;;20.53;13.53;;;;;;;;;;5083769;28;20197;-63